PWSweather.com
Personal Weather Stations
Station Observations
KVAGLENALL
West Henrico, Glen Allen, VA 23060-6503

West HenricoGlen Allen, VA 23060-6503

Lat: 37.6554, Lon: -77.5693

Elevation: 273

Station Type: Davis Vantage Pro II

www.glenallenweather.com

High Low Average
Temperature 73.7°F23.2°C 68.5°F20.3°C 71.1°F21.7°C
Dew Point 72.5°F22.5°C 67.4°F19.7°C 69.5°F20.8°C
Winds 6.0 mph 9.7 kmh Calm Calm 2.0 mph SSE3.2 kmh SSE
Wind Gusts 9.1 mph14.6 kmh -- 3.0 mph4.8 kmh
Humidity 96% 91% 95%
Pressure 29.94 in1013.9 mb 29.80 in1009.1 mb -
Precipitation 0.00 in0.0 mm - -
Hour Temp Dew Point Humidity Winds Wind Gusts Pressure Precip Precip Rate Daily Precip Total
12:00 AM 73.8°F23.2°C 70.3°F21.3°C 89% Calm Calm 1.0 mph1.6 kmh 29.84 in1010.5 mb 0.00 in0.0 mm 0.00 in0.0 mm 0.00 in0.0 mm
01:00 AM 72.6°F22.6°C 69.8°F21.0°C 91% 1.0 mph SSW1.6 kmh SSW 2.0 mph3.2 kmh 29.83 in1010.2 mb 0.00 in0.0 mm 0.00 in0.0 mm 0.00 in0.0 mm
01:30 AM 72.3°F22.4°C 69.5°F20.8°C 91% Calm Calm -- 29.82 in1009.8 mb 0.00 in0.0 mm 0.00 in0.0 mm 0.00 in0.0 mm
02:00 AM 71.9°F22.2°C 69.4°F20.8°C 92% Calm Calm -- 29.82 in1009.8 mb 0.00 in0.0 mm 0.00 in0.0 mm 0.00 in0.0 mm
03:00 AM 70.9°F21.6°C 69.0°F20.6°C 94% Calm Calm -- 29.81 in1009.5 mb 0.00 in0.0 mm 0.00 in0.0 mm 0.00 in0.0 mm
04:00 AM 70.5°F21.4°C 68.7°F20.4°C 94% Calm Calm -- 29.80 in1009.1 mb 0.00 in0.0 mm 0.00 in0.0 mm 0.00 in0.0 mm
05:00 AM 70.6°F21.4°C 69.1°F20.6°C 95% 1.0 mph SW1.6 kmh SW 2.0 mph3.2 kmh 29.81 in1009.5 mb 0.00 in0.0 mm 0.00 in0.0 mm 0.00 in0.0 mm
06:00 AM 70.8°F21.6°C 69.3°F20.7°C 95% Calm Calm -- 29.82 in1009.8 mb 0.00 in0.0 mm 0.00 in0.0 mm 0.00 in0.0 mm
07:00 AM 72.0°F22.2°C 70.1°F21.2°C 94% Calm Calm -- 29.84 in1010.5 mb 0.00 in0.0 mm 0.00 in0.0 mm 0.00 in0.0 mm
08:00 AM 72.6°F22.6°C 70.4°F21.3°C 93% 3.0 mph N4.8 kmh N 6.1 mph9.8 kmh 29.86 in1011.2 mb 0.00 in0.0 mm 0.00 in0.0 mm 0.00 in0.0 mm
09:00 AM 72.2°F22.3°C 70.0°F21.1°C 93% 3.0 mph N4.8 kmh N 5.1 mph8.2 kmh 29.86 in1011.2 mb 0.03 in0.8 mm 0.00 in0.0 mm 0.03 in0.8 mm
10:00 AM 71.9°F22.2°C 70.0°F21.1°C 94% 3.0 mph N4.8 kmh N 4.0 mph6.4 kmh 29.87 in1011.5 mb 0.02 in0.5 mm 0.00 in0.0 mm 0.03 in0.8 mm
11:00 AM 71.8°F22.1°C 70.3°F21.3°C 95% 2.0 mph NE3.2 kmh NE 3.0 mph4.8 kmh 29.88 in1011.9 mb 0.14 in3.6 mm 0.00 in0.0 mm 0.15 in3.8 mm
12:00 PM 72.3°F22.4°C 71.1°F21.7°C 96% 3.0 mph NNW4.8 kmh NNW 5.1 mph8.2 kmh 29.89 in1012.2 mb 0.22 in5.6 mm 0.00 in0.0 mm 0.23 in5.8 mm
01:00 PM 73.7°F23.2°C 72.5°F22.5°C 96% 2.0 mph SW3.2 kmh SW 3.0 mph4.8 kmh 29.88 in1011.9 mb 0.28 in7.1 mm 0.00 in0.0 mm 0.29 in7.4 mm
02:00 PM 72.6°F22.6°C 71.4°F21.9°C 96% 4.0 mph E6.4 kmh E 4.0 mph6.4 kmh 29.88 in1011.9 mb 1.61 in40.9 mm 0.00 in0.0 mm 1.62 in41.1 mm
03:00 PM 72.3°F22.4°C 71.1°F21.7°C 96% Calm Calm 2.0 mph3.2 kmh 29.88 in1011.9 mb 0.84 in21.3 mm 0.00 in0.0 mm 1.62 in41.1 mm
04:00 PM 71.1°F21.7°C 69.6°F20.9°C 95% 2.0 mph NE3.2 kmh NE 3.0 mph4.8 kmh 29.88 in1011.9 mb 0.11 in2.8 mm 0.00 in0.0 mm 1.62 in41.1 mm
05:00 PM 71.1°F21.7°C 69.9°F21.1°C 96% Calm Calm 4.0 mph6.4 kmh 29.88 in1011.9 mb 0.36 in9.1 mm 0.00 in0.0 mm 1.87 in47.5 mm
06:00 PM 70.8°F21.6°C 69.3°F20.7°C 95% 6.0 mph SE9.7 kmh SE 9.1 mph14.6 kmh 29.88 in1011.9 mb 0.05 in1.3 mm 0.00 in0.0 mm 1.87 in47.5 mm
07:00 PM 69.7°F20.9°C 67.9°F19.9°C 94% 1.0 mph ESE1.6 kmh ESE 5.1 mph8.2 kmh 29.88 in1011.9 mb 0.00 in0.0 mm 0.00 in0.0 mm 1.87 in47.5 mm
08:00 PM 68.8°F20.4°C 67.4°F19.7°C 95% 2.0 mph E3.2 kmh E 6.1 mph9.8 kmh 29.90 in1012.5 mb 0.06 in1.5 mm 0.00 in0.0 mm 1.93 in49.0 mm
09:00 PM 68.5°F20.3°C 67.4°F19.7°C 96% 3.0 mph NE4.8 kmh NE 6.1 mph9.8 kmh 29.91 in1012.9 mb 0.03 in0.8 mm 0.00 in0.0 mm 1.93 in49.0 mm
10:00 PM 69.2°F20.7°C 68.1°F20.1°C 96% 4.0 mph NE6.4 kmh NE 5.1 mph8.2 kmh 29.93 in1013.5 mb 0.04 in1.0 mm 0.00 in0.0 mm 1.94 in49.3 mm
11:00 PM 69.1°F20.6°C 68.0°F20.0°C 96% 3.0 mph NE4.8 kmh NE 5.1 mph8.2 kmh 29.93 in1013.5 mb 0.00 in0.0 mm 0.00 in0.0 mm 1.94 in49.3 mm